Airfield :
LOGIN :

Register | Disclaimer

   EN    FR    IT 

 










Legend :    VFR   Marginal VFR   IFR   Intensive IFR   Very Intensive IFR
Visi :
Ceiling :
>= 8 km
>= 3000ft
5 to 8 km
1000 to 3000 ft
1500m to 5 km
500 to 1000 ft
800 to 1500m
200 to 500 ft
< 800m
< 200 ft
Symbols :   Thunderstorms  Fog  Heavy snow  Heavy precipitations  Wind > 20 kt
SIGMETs :     Misc.  Thunderstorms  Icing  Turbulence  Mountain Waves  Volcanic Ashes






- Airport Elevation : 36 ft
- IATA code : LTQ


LFAT - Le Touquet

CURRENT METAR :
  • 270600Z AUTO 21007KT 180V240 9999 SCT016/// BKN230/// 08/07 Q1007

EXPIRED METARs :
  • 270530Z AUTO 22008KT 9999 FEW018/// OVC039/// 09/08 Q1007
  • 270500Z AUTO 22008KT 190V260 9999 FEW014/// OVC033/// 09/08 Q1007
  • 270430Z AUTO 21008KT 180V240 9999 OVC013/// 09/08 Q1007
  • 270400Z AUTO 22007KT 190V260 9999 OVC012/// 09/08 Q1007
  • 270330Z AUTO 23008KT 200V260 9999 BKN009/// OVC014/// 09/08 Q1007

TAF TAF LFAT
Valid from the 27 at 06:00 until the 27 at 15:00 UTC


270500Z 2706/2715 23015KT 9999 OVC030
TEMPO 2712/2715 23015G25KT 3000 RA BKN010 SCT025CB
ATIS : +33 3 21 06 62 84



MET'MAP, your aeronautical weather chart ! - Copyright ORBIFLY December 2007 - Disclaimer

ORBIFLY MET'MAP TEAM :

Programming & Development : Alexandra Zaïnal
Concept & original design : Baudouin d'Aumeries
Assistance for programming : Marc-Olivier Méhu
Technical & hardware support : Manuel Goepfert

Contact : metmap@orbifly.com




SOURCES & CREDITS :

   NOAA